Time;durP1;ratioP1;P1;durP2;ratioP2;P2;SDS_P1;SDS_P2;PMS_P1;PMS_P2;Temp;Humidity;BMP_temperature;BMP_pressure;BME280_temperature;BME280_humidity;BME280_pressure;Samples;Min_cycle;Max_cycle;Signal;HPM_P1;HPM_P2
2022/12/20 00:00:04;;;;;;;36.58;19.27;;;;;;;;;;12842084;19;20350;-64
2022/12/20 00:04:21;;;;;;;47.95;20.02;;;;;;;;;;12838916;19;20301;-64
2022/12/20 00:08:39;;;;;;;44.30;20.65;;;;;;;;;;12838776;19;20437;-64
2022/12/20 00:12:56;;;;;;;45.13;21.02;;;;;;;;;;12837049;19;20349;-64
2022/12/20 00:17:13;;;;;;;46.55;21.20;;;;;;;;;;12839816;19;20433;-64
2022/12/20 00:21:33;;;;;;;52.95;25.75;;;;;;;;;;12836480;19;20006;-64
2022/12/20 00:25:50;;;;;;;46.60;19.10;;;;;;;;;;12838720;19;20484;-63
2022/12/20 00:30:07;;;;;;;40.60;18.00;;;;;;;;;;12837889;19;20461;-64
2022/12/20 00:34:24;;;;;;;36.22;17.27;;;;;;;;;;12838289;19;20454;-64
2022/12/20 00:38:44;;;;;;;49.65;20.42;;;;;;;;;;12837491;19;20018;-65
2022/12/20 00:43:01;;;;;;;44.80;21.08;;;;;;;;;;12836426;19;20433;-64
2022/12/20 00:47:18;;;;;;;56.00;22.58;;;;;;;;;;12837461;19;20315;-66
2022/12/20 00:51:35;;;;;;;43.03;18.80;;;;;;;;;;12837542;19;20456;-65
2022/12/20 00:55:53;;;;;;;44.92;18.20;;;;;;;;;;12836975;19;20014;-64
2022/12/20 01:00:10;;;;;;;47.22;18.08;;;;;;;;;;12835546;19;20335;-64
2022/12/20 01:04:27;;;;;;;49.33;21.03;;;;;;;;;;12837389;19;20454;-64
2022/12/20 01:08:45;;;;;;;63.80;27.63;;;;;;;;;;12836151;19;20231;-65
2022/12/20 01:13:02;;;;;;;56.35;25.90;;;;;;;;;;12835613;19;20322;-64
2022/12/20 01:17:19;;;;;;;38.65;17.33;;;;;;;;;;12836408;19;20429;-65
2022/12/20 01:21:38;;;;;;;37.25;19.50;;;;;;;;;;12836290;19;20304;-65
2022/12/20 01:26:09;;;;;;;45.45;22.15;;;;;;;;;;12847692;19;20042;-64
2022/12/20 01:30:26;;;;;;;49.17;22.80;;;;;;;;;;12847691;19;20006;-65
2022/12/20 01:34:43;;;;;;;30.85;15.98;;;;;;;;;;12850112;19;20358;-64
2022/12/20 01:39:05;;;;;;;34.35;14.85;;;;;;;;;;12846865;19;20007;-64
2022/12/20 01:43:24;;;;;;;28.88;13.75;;;;;;;;;;12846260;19;20338;-64
2022/12/20 01:47:41;;;;;;;30.55;14.68;;;;;;;;;;12846791;19;20018;-65
2022/12/20 01:52:08;;;;;;;28.02;11.70;;;;;;;;;;12846950;19;20042;-64
2022/12/20 01:56:25;;;;;;;29.70;13.13;;;;;;;;;;12845990;19;20041;-64
2022/12/20 02:00:44;;;;;;;24.70;12.10;;;;;;;;;;12845281;19;20304;-65
2022/12/20 02:05:02;;;;;;;39.30;16.73;;;;;;;;;;12845934;19;20426;-65
2022/12/20 02:09:19;;;;;;;47.83;18.87;;;;;;;;;;12844101;19;20445;-65
2022/12/20 02:14:30;;;;;;;20.45;10.23;;;;;;;;;;12848199;19;20011;-66
2022/12/20 02:18:59;;;;;;;28.88;13.23;;;;;;;;;;12845076;19;20355;-64
2022/12/20 02:24:04;;;;;;;28.05;13.82;;;;;;;;;;12842109;19;20015;-65
2022/12/20 02:29:02;;;;;;;21.08;9.18;;;;;;;;;;12843901;19;20330;-65
2022/12/20 02:33:21;;;;;;;21.35;9.65;;;;;;;;;;12841103;19;20317;-65
2022/12/20 02:37:57;;;;;;;20.65;10.80;;;;;;;;;;12844170;19;20007;-64
2022/12/20 02:42:22;;;;;;;22.27;9.85;;;;;;;;;;12843062;19;20010;-65
2022/12/20 02:46:39;;;;;;;20.05;9.13;;;;;;;;;;12844549;19;20368;-64
2022/12/20 02:50:59;;;;;;;21.97;9.90;;;;;;;;;;12841315;19;20329;-64
2022/12/20 02:55:16;;;;;;;17.88;9.35;;;;;;;;;;12840842;19;20003;-64
2022/12/20 02:59:53;;;;;;;19.50;9.63;;;;;;;;;;12841523;19;20456;-64
2022/12/20 03:04:11;;;;;;;20.00;10.15;;;;;;;;;;12839408;19;20318;-64
2022/12/20 03:08:29;;;;;;;24.55;9.07;;;;;;;;;;12840869;19;20449;-66
2022/12/20 03:12:46;;;;;;;20.13;8.73;;;;;;;;;;12841856;19;20049;-65
2022/12/20 03:17:04;;;;;;;16.25;9.32;;;;;;;;;;12838215;19;20710;-64
2022/12/20 03:21:21;;;;;;;;;;;;;;;;;;12837254;19;20346;-65
2022/12/20 03:25:38;;;;;;;19.65;9.65;;;;;;;;;;12839547;19;20202;-65
2022/12/20 03:29:55;;;;;;;21.55;9.50;;;;;;;;;;12842071;19;20330;-65
2022/12/20 03:34:12;;;;;;;17.33;7.60;;;;;;;;;;12840512;19;20436;-65
2022/12/20 03:38:29;;;;;;;18.02;9.45;;;;;;;;;;12840098;19;20413;-65
2022/12/20 03:42:46;;;;;;;17.42;9.23;;;;;;;;;;12839923;19;20434;-66
2022/12/20 03:47:03;;;;;;;17.70;8.85;;;;;;;;;;12839722;19;20457;-64
2022/12/20 03:51:20;;;;;;;21.60;9.18;;;;;;;;;;12839495;19;20430;-64
2022/12/20 03:55:37;;;;;;;21.30;10.82;;;;;;;;;;12839930;19;20419;-64
2022/12/20 03:59:54;;;;;;;24.10;11.68;;;;;;;;;;12840159;19;20025;-64
2022/12/20 04:04:13;;;;;;;;;;;;;;;;;;12838782;19;20468;-66
2022/12/20 04:08:31;;;;;;;28.35;13.07;;;;;;;;;;12838575;19;20322;-65
2022/12/20 04:12:48;;;;;;;27.00;10.80;;;;;;;;;;12839484;19;20629;-65
2022/12/20 04:17:05;;;;;;;28.00;11.68;;;;;;;;;;12837881;19;20775;-64
2022/12/20 04:21:28;;;;;;;20.90;10.20;;;;;;;;;;12836677;19;20441;-65
2022/12/20 04:25:48;;;;;;;21.65;10.10;;;;;;;;;;12838512;19;20386;-65
2022/12/20 04:30:06;;;;;;;17.75;8.77;;;;;;;;;;12837410;19;20011;-65
2022/12/20 04:34:23;;;;;;;19.65;9.90;;;;;;;;;;12838506;19;20413;-64
2022/12/20 04:38:41;;;;;;;46.90;14.80;;;;;;;;;;12824211;19;125488;-64
2022/12/20 04:42:57;;;;;;;31.88;13.38;;;;;;;;;;12837296;19;20433;-64
2022/12/20 04:47:15;;;;;;;39.53;12.45;;;;;;;;;;12835780;19;20384;-64
2022/12/20 04:51:32;;;;;;;34.35;12.85;;;;;;;;;;12836447;19;20028;-64
2022/12/20 04:55:49;;;;;;;26.83;11.52;;;;;;;;;;12839273;19;20580;-65
2022/12/20 05:00:07;;;;;;;22.40;10.52;;;;;;;;;;12848868;19;20344;-64
2022/12/20 05:04:24;;;;;;;25.42;11.73;;;;;;;;;;12851072;19;20042;-65
2022/12/20 05:08:41;;;;;;;32.38;13.57;;;;;;;;;;12849098;19;20303;-67
2022/12/20 05:12:58;;;;;;;36.13;12.90;;;;;;;;;;12851180;19;20476;-64
2022/12/20 05:17:23;;;;;;;34.22;14.73;;;;;;;;;;12848046;19;20452;-65
2022/12/20 05:26:17;;;;;;;26.45;11.70;;;;;;;;;;12847320;19;20372;-65
2022/12/20 05:30:34;;;;;;;30.05;12.68;;;;;;;;;;12846996;19;20014;-66
2022/12/20 05:34:52;;;;;;;41.97;20.70;;;;;;;;;;12847589;19;20014;-65
2022/12/20 05:39:10;;;;;;;26.38;16.23;;;;;;;;;;12846450;19;20334;-64
2022/12/20 05:43:27;;;;;;;23.73;13.90;;;;;;;;;;12846670;19;20330;-64
2022/12/20 05:47:44;;;;;;;25.55;14.68;;;;;;;;;;12845734;19;20437;-64
2022/12/20 05:52:02;;;;;;;27.67;13.70;;;;;;;;;;12847169;19;20014;-64
2022/12/20 05:56:19;;;;;;;25.15;11.95;;;;;;;;;;12846963;19;20011;-64
2022/12/20 06:00:36;;;;;;;25.65;12.07;;;;;;;;;;12846653;19;20006;-65
2022/12/20 06:04:54;;;;;;;34.08;15.38;;;;;;;;;;12845959;19;20437;-65
2022/12/20 06:09:11;;;;;;;;;;;;;;;;;;12842855;19;20438;-65
2022/12/20 06:13:28;;;;;;;31.40;14.32;;;;;;;;;;12846547;19;20194;-65
2022/12/20 06:17:45;;;;;;;33.63;15.10;;;;;;;;;;12847323;19;20421;-65
2022/12/20 06:22:02;;;;;;;30.80;14.20;;;;;;;;;;12843247;19;20315;-65
2022/12/20 06:26:22;;;;;;;31.65;14.10;;;;;;;;;;12844229;19;20326;-64
2022/12/20 06:30:39;;;;;;;26.50;12.38;;;;;;;;;;12843887;19;20033;-64
2022/12/20 06:34:56;;;;;;;25.02;11.73;;;;;;;;;;12843933;19;20025;-64
2022/12/20 06:39:14;;;;;;;26.23;12.10;;;;;;;;;;12842892;19;20007;-64
2022/12/20 06:43:31;;;;;;;29.25;14.00;;;;;;;;;;12843346;19;20428;-65
2022/12/20 06:47:48;;;;;;;28.15;14.20;;;;;;;;;;12843172;19;20453;-66
2022/12/20 06:52:05;;;;;;;28.20;14.32;;;;;;;;;;12842684;19;20468;-65
2022/12/20 06:56:22;;;;;;;26.80;13.48;;;;;;;;;;12837593;19;20306;-65
2022/12/20 07:00:39;;;;;;;31.95;15.35;;;;;;;;;;12843465;19;20006;-64
2022/12/20 07:04:56;;;;;;;27.17;13.40;;;;;;;;;;12843166;19;20487;-64
2022/12/20 07:09:13;;;;;;;30.15;14.25;;;;;;;;;;12842001;19;20437;-65
2022/12/20 07:13:30;;;;;;;117.68;47.17;;;;;;;;;;12842429;19;20414;-64
2022/12/20 07:17:48;;;;;;;36.30;18.38;;;;;;;;;;12841869;19;20448;-64
2022/12/20 07:22:05;;;;;;;109.55;47.65;;;;;;;;;;12839198;19;20306;-66
2022/12/20 07:26:22;;;;;;;45.60;24.55;;;;;;;;;;12840707;19;20356;-64
2022/12/20 07:30:39;;;;;;;42.83;22.10;;;;;;;;;;12785771;19;20350;-64
2022/12/20 07:34:56;;;;;;;32.30;17.02;;;;;;;;;;12840941;19;20428;-64
2022/12/20 07:39:13;;;;;;;33.80;16.75;;;;;;;;;;12839937;19;20453;-64
2022/12/20 07:43:30;;;;;;;64.50;25.77;;;;;;;;;;12839348;19;20334;-64
2022/12/20 07:47:47;;;;;;;55.75;25.48;;;;;;;;;;12839966;19;20349;-65
2022/12/20 07:52:07;;;;;;;46.90;22.10;;;;;;;;;;12839716;19;20018;-65
2022/12/20 07:56:26;;;;;;;61.45;25.88;;;;;;;;;;12836874;19;20425;-65
2022/12/20 08:00:44;;;;;;;37.97;17.40;;;;;;;;;;12838245;19;20006;-63
2022/12/20 08:05:04;;;;;;;37.17;16.30;;;;;;;;;;12837519;19;20367;-65
2022/12/20 08:09:24;;;;;;;36.95;16.80;;;;;;;;;;12836954;19;20429;-64
2022/12/20 08:13:41;;;;;;;27.95;13.65;;;;;;;;;;12838805;19;20386;-64
2022/12/20 08:18:05;;;;;;;28.55;13.15;;;;;;;;;;12839009;19;20512;-63
2022/12/20 08:22:22;;;;;;;23.25;12.90;;;;;;;;;;12782927;19;20426;-64
2022/12/20 08:26:40;;;;;;;28.27;15.73;;;;;;;;;;12838469;19;20017;-64
2022/12/20 08:31:03;;;;;;;28.10;13.25;;;;;;;;;;12836780;19;20330;-64
2022/12/20 08:35:21;;;;;;;26.17;13.05;;;;;;;;;;12836453;19;20014;-64
2022/12/20 08:39:38;;;;;;;25.77;13.82;;;;;;;;;;12837643;19;20755;-64
2022/12/20 08:43:55;;;;;;;132.80;77.43;;;;;;;;;;12836683;19;20456;-64
2022/12/20 08:48:12;;;;;;;23.70;13.52;;;;;;;;;;12836258;19;20087;-64
2022/12/20 08:52:30;;;;;;;31.25;14.55;;;;;;;;;;12836377;19;20421;-64
2022/12/20 08:56:47;;;;;;;31.63;13.93;;;;;;;;;;12837421;19;20010;-64
2022/12/20 09:01:07;;;;;;;28.93;12.87;;;;;;;;;;12836691;19;20464;-63
2022/12/20 09:05:24;;;;;;;32.47;14.38;;;;;;;;;;12835291;19;20717;-64
2022/12/20 09:09:41;;;;;;;27.95;14.32;;;;;;;;;;12836292;19;20302;-64
2022/12/20 09:13:59;;;;;;;26.58;13.75;;;;;;;;;;12838764;19;20452;-63
2022/12/20 09:18:15;;;;;;;35.58;13.60;;;;;;;;;;12835463;19;20011;-64
2022/12/20 09:22:33;;;;;;;28.63;13.85;;;;;;;;;;12835436;19;20485;-65
2022/12/20 09:26:49;;;;;;;28.70;13.82;;;;;;;;;;12835410;19;20002;-64
2022/12/20 09:31:12;;;;;;;29.38;14.55;;;;;;;;;;12834374;19;20425;-65
2022/12/20 09:35:32;;;;;;;33.70;16.60;;;;;;;;;;12835612;19;20014;-65
2022/12/20 09:39:52;;;;;;;55.75;23.67;;;;;;;;;;12834723;19;20346;-65
2022/12/20 09:44:18;;;;;;;140.95;58.85;;;;;;;;;;12842254;19;20437;-65
2022/12/20 09:48:39;;;;;;;53.42;25.80;;;;;;;;;;12848290;19;20453;-64
2022/12/20 09:53:13;;;;;;;45.83;22.52;;;;;;;;;;12844792;19;20022;-64
2022/12/20 09:58:03;;;;;;;53.03;24.50;;;;;;;;;;12846319;19;20426;-64
2022/12/20 10:02:22;;;;;;;52.17;22.08;;;;;;;;;;12844356;19;20433;-64
2022/12/20 10:07:25;;;;;;;69.78;29.98;;;;;;;;;;12844711;19;20299;-65
2022/12/20 10:12:13;;;;;;;60.90;31.02;;;;;;;;;;12843696;19;20021;-65
2022/12/20 10:17:26;;;;;;;39.17;17.52;;;;;;;;;;12844854;19;20344;-65
2022/12/20 10:22:13;;;;;;;31.90;15.98;;;;;;;;;;12835962;19;20430;-66
2022/12/20 10:26:32;;;;;;;30.00;14.30;;;;;;;;;;12842158;19;20431;-64
2022/12/20 10:30:49;;;;;;;34.17;18.15;;;;;;;;;;12845698;19;20443;-65
2022/12/20 10:35:09;;;;;;;29.92;13.63;;;;;;;;;;12844641;19;20425;-65
2022/12/20 10:39:41;;;;;;;43.97;26.58;;;;;;;;;;12844101;19;20291;-64
2022/12/20 10:44:14;;;;;;;35.88;16.83;;;;;;;;;;12844122;19;20288;-64
2022/12/20 10:48:43;;;;;;;29.98;16.67;;;;;;;;;;12844938;19;20441;-66
2022/12/20 10:53:23;;;;;;;33.65;15.13;;;;;;;;;;12840848;19;20453;-66
2022/12/20 10:57:41;;;;;;;53.65;24.05;;;;;;;;;;12844449;19;20370;-67
2022/12/20 11:01:58;;;;;;;36.45;18.00;;;;;;;;;;12840938;19;20310;-64
2022/12/20 11:06:18;;;;;;;43.23;20.23;;;;;;;;;;12842945;19;20505;-66
2022/12/20 11:10:36;;;;;;;37.90;17.80;;;;;;;;;;12843185;19;20098;-66
2022/12/20 11:15:19;;;;;;;30.70;14.47;;;;;;;;;;12842639;19;20006;-64
2022/12/20 11:20:25;;;;;;;30.25;14.10;;;;;;;;;;12837746;19;20318;-65
2022/12/20 11:25:30;;;;;;;27.15;15.18;;;;;;;;;;12767460;19;20437;-65
2022/12/20 11:30:14;;;;;;;29.38;14.40;;;;;;;;;;12839098;19;20318;-64
2022/12/20 11:34:55;;;;;;;24.27;12.88;;;;;;;;;;12836516;19;20414;-67
2022/12/20 11:39:47;;;;;;;44.30;24.17;;;;;;;;;;12785264;19;20313;-65
2022/12/20 11:44:16;;;;;;;29.33;16.05;;;;;;;;;;12795659;19;20432;-64
2022/12/20 11:49:18;;;;;;;26.05;13.43;;;;;;;;;;12837965;19;20302;-64
2022/12/20 11:53:44;;;;;;;32.40;16.30;;;;;;;;;;12835824;19;20330;-65
2022/12/20 11:58:14;;;;;;;43.67;19.73;;;;;;;;;;12838386;19;20010;-64
2022/12/20 12:02:46;;;;;;;48.92;21.38;;;;;;;;;;12839098;19;20367;-66
2022/12/20 12:07:19;;;;;;;48.58;20.30;;;;;;;;;;12835293;19;20350;-64
2022/12/20 12:11:46;;;;;;;37.92;17.25;;;;;;;;;;12837620;19;20042;-65
2022/12/20 12:16:34;;;;;;;40.60;17.73;;;;;;;;;;12839025;19;20422;-65
2022/12/20 12:21:04;;;;;;;47.63;22.10;;;;;;;;;;12836485;19;20297;-65
2022/12/20 12:25:25;;;;;;;70.03;34.55;;;;;;;;;;12838356;19;20346;-64
2022/12/20 12:29:42;;;;;;;35.60;18.15;;;;;;;;;;12838051;19;20370;-66
2022/12/20 12:34:20;;;;;;;29.80;16.50;;;;;;;;;;12839210;19;20018;-69
2022/12/20 12:39:05;;;;;;;32.95;16.10;;;;;;;;;;12837853;19;20456;-66
2022/12/20 12:43:42;;;;;;;30.25;15.88;;;;;;;;;;12836713;19;20322;-64
2022/12/20 12:48:11;;;;;;;29.08;14.52;;;;;;;;;;12837030;19;20536;-64
2022/12/20 12:52:56;;;;;;;38.35;17.95;;;;;;;;;;12836197;19;20429;-66
2022/12/20 12:57:16;;;;;;;34.83;18.85;;;;;;;;;;12835642;19;20356;-64
2022/12/20 13:02:13;;;;;;;31.42;16.48;;;;;;;;;;12836599;19;20326;-65
2022/12/20 13:06:35;;;;;;;38.80;19.35;;;;;;;;;;12837022;19;20351;-66
2022/12/20 13:10:51;;;;;;;43.78;21.98;;;;;;;;;;12783061;19;20430;-65
2022/12/20 13:15:20;;;;;;;31.70;15.82;;;;;;;;;;12836316;19;20449;-65
2022/12/20 13:19:47;;;;;;;40.13;19.50;;;;;;;;;;12845786;19;20441;-66
2022/12/20 13:24:49;;;;;;;52.85;26.48;;;;;;;;;;12847156;19;20452;-65
2022/12/20 13:29:32;;;;;;;63.08;35.35;;;;;;;;;;12847645;19;20006;-66
2022/12/20 13:33:53;;;;;;;47.70;24.65;;;;;;;;;;12847933;19;20045;-65
2022/12/20 13:38:10;;;;;;;74.93;37.72;;;;;;;;;;12847793;19;20010;-65
2022/12/20 13:42:38;;;;;;;130.57;47.83;;;;;;;;;;12847358;19;20460;-65
2022/12/20 13:47:35;;;;;;;95.75;37.67;;;;;;;;;;12846310;19;20327;-64
2022/12/20 13:52:10;;;;;;;66.78;32.38;;;;;;;;;;12845672;19;20326;-65
2022/12/20 13:56:40;;;;;;;60.95;32.55;;;;;;;;;;12846498;19;20045;-64
2022/12/20 14:01:10;;;;;;;;;;;;;;;;;;12845944;19;20422;-65
2022/12/20 14:05:36;;;;;;;47.65;23.33;;;;;;;;;;12844658;19;20207;-65
2022/12/20 14:10:02;;;;;;;55.33;26.60;;;;;;;;;;12846714;19;20425;-65
2022/12/20 14:14:20;;;;;;;62.08;31.30;;;;;;;;;;12845570;19;20441;-64
2022/12/20 14:18:37;;;;;;;43.83;21.08;;;;;;;;;;12846094;19;20322;-66
2022/12/20 14:23:12;;;;;;;39.15;19.77;;;;;;;;;;12844167;19;20485;-64
2022/12/20 14:27:35;;;;;;;47.17;19.98;;;;;;;;;;12845211;19;20425;-65
2022/12/20 14:31:52;;;;;;;51.10;23.35;;;;;;;;;;12841830;19;20323;-65
2022/12/20 14:36:18;;;;;;;40.50;20.07;;;;;;;;;;12845062;19;20456;-65
2022/12/20 14:40:41;;;;;;;47.30;22.20;;;;;;;;;;12845488;19;20014;-64
2022/12/20 14:45:09;;;;;;;40.70;19.60;;;;;;;;;;12844205;19;20583;-65
2022/12/20 14:49:35;;;;;;;65.88;30.70;;;;;;;;;;12844071;19;20314;-65
2022/12/20 14:53:58;;;;;;;132.45;52.65;;;;;;;;;;12843753;19;20486;-65
2022/12/20 14:58:24;;;;;;;77.05;35.25;;;;;;;;;;12843057;19;20010;-65
2022/12/20 15:02:59;;;;;;;113.03;51.92;;;;;;;;;;12843569;19;20484;-64
2022/12/20 15:07:32;;;;;;;102.75;50.03;;;;;;;;;;12842132;19;20504;-65
2022/12/20 15:11:50;;;;;;;95.93;43.53;;;;;;;;;;12843211;19;20330;-65
2022/12/20 15:16:18;;;;;;;70.53;34.85;;;;;;;;;;12841538;19;20425;-65
2022/12/20 15:20:35;;;;;;;50.28;24.98;;;;;;;;;;12843011;19;20010;-64
2022/12/20 15:24:52;;;;;;;46.83;24.17;;;;;;;;;;12841706;19;20433;-66
2022/12/20 15:29:22;;;;;;;58.83;28.42;;;;;;;;;;12842127;19;20429;-64
2022/12/20 15:33:42;;;;;;;67.63;35.70;;;;;;;;;;12336427;19;10000584;-65
2022/12/20 15:37:59;;;;;;;95.72;48.38;;;;;;;;;;12842361;19;20033;-64
2022/12/20 15:42:19;;;;;;;67.88;33.05;;;;;;;;;;12733307;19;20341;-64
2022/12/20 15:46:36;;;;;;;57.63;30.23;;;;;;;;;;12841383;19;20488;-64
2022/12/20 15:50:57;;;;;;;54.40;26.30;;;;;;;;;;12841797;19;20321;-64
2022/12/20 15:55:14;;;;;;;60.92;27.58;;;;;;;;;;12787015;19;20338;-65
2022/12/20 15:59:32;;;;;;;69.82;30.15;;;;;;;;;;12839587;19;20322;-65
2022/12/20 16:04:17;;;;;;;113.05;50.83;;;;;;;;;;12839341;19;20440;-64
2022/12/20 16:08:34;;;;;;;151.95;70.68;;;;;;;;;;12841581;19;20347;-65
2022/12/20 16:12:51;;;;;;;161.82;71.78;;;;;;;;;;12841145;19;20436;-66
2022/12/20 16:17:13;;;;;;;102.97;51.60;;;;;;;;;;12839512;19;20048;-66
2022/12/20 16:21:34;;;;;;;60.60;32.35;;;;;;;;;;12836940;19;20497;-64
2022/12/20 16:25:52;;;;;;;50.15;25.63;;;;;;;;;;12836353;19;20363;-64
2022/12/20 16:30:09;;;;;;;50.13;22.90;;;;;;;;;;12838521;19;20355;-65
2022/12/20 16:34:26;;;;;;;51.25;25.55;;;;;;;;;;12838811;19;20014;-64
2022/12/20 16:38:43;;;;;;;65.15;29.83;;;;;;;;;;12837830;19;20433;-65
2022/12/20 16:43:01;;;;;;;50.45;25.45;;;;;;;;;;12836784;19;20025;-65
2022/12/20 16:47:18;;;;;;;44.28;22.00;;;;;;;;;;12837579;19;20038;-64
2022/12/20 16:51:43;;;;;;;40.35;20.25;;;;;;;;;;12838662;19;20536;-64
2022/12/20 16:56:01;;;;;;;56.25;27.02;;;;;;;;;;12848335;19;20287;-64
2022/12/20 17:00:24;;;;;;;61.80;30.15;;;;;;;;;;12849490;19;20014;-64
2022/12/20 17:04:41;;;;;;;43.70;22.15;;;;;;;;;;12849423;19;20425;-64
2022/12/20 17:08:59;;;;;;;62.58;29.45;;;;;;;;;;12848842;19;20325;-64
2022/12/20 17:13:17;;;;;;;46.08;23.38;;;;;;;;;;12845784;19;20439;-64
2022/12/20 17:17:33;;;;;;;56.63;27.23;;;;;;;;;;12849431;19;20307;-65
2022/12/20 17:21:51;;;;;;;53.95;27.27;;;;;;;;;;12848021;19;20003;-64
2022/12/20 17:26:25;;;;;;;55.22;24.88;;;;;;;;;;12847881;19;20424;-66
2022/12/20 17:30:42;;;;;;;57.42;28.25;;;;;;;;;;12848700;19;20317;-64
2022/12/20 17:34:59;;;;;;;56.67;24.77;;;;;;;;;;12846257;19;20329;-66
2022/12/20 17:39:17;;;;;;;61.38;29.73;;;;;;;;;;12847211;19;20329;-65
2022/12/20 17:43:34;;;;;;;60.93;29.97;;;;;;;;;;12847491;19;20288;-64
2022/12/20 17:47:53;;;;;;;86.47;40.35;;;;;;;;;;12847726;19;20007;-64
2022/12/20 17:52:14;;;;;;;54.20;24.65;;;;;;;;;;12846873;19;20437;-64
2022/12/20 17:56:34;;;;;;;72.32;34.00;;;;;;;;;;12845152;19;20429;-65
2022/12/20 18:00:51;;;;;;;75.40;36.17;;;;;;;;;;12845960;19;20370;-65
2022/12/20 18:05:14;;;;;;;94.35;38.83;;;;;;;;;;12844324;19;20500;-65
2022/12/20 18:09:31;;;;;;;66.20;33.20;;;;;;;;;;12844673;19;20420;-65
2022/12/20 18:13:50;;;;;;;69.70;39.67;;;;;;;;;;12739363;19;20445;-66
2022/12/20 18:18:08;;;;;;;63.65;36.00;;;;;;;;;;12845224;19;20315;-65
2022/12/20 18:22:25;;;;;;;104.20;42.97;;;;;;;;;;12844357;19;20330;-65
2022/12/20 18:26:43;;;;;;;141.65;53.72;;;;;;;;;;12844342;19;20011;-65
2022/12/20 18:31:06;;;;;;;89.10;38.65;;;;;;;;;;12844974;19;20460;-64
2022/12/20 18:35:23;;;;;;;140.30;54.17;;;;;;;;;;12845218;19;20453;-70
2022/12/20 18:39:40;;;;;;;69.80;31.33;;;;;;;;;;12790403;19;19999;-65
2022/12/20 18:44:03;;;;;;;102.07;45.35;;;;;;;;;;12844056;19;20318;-64
2022/12/20 18:48:22;;;;;;;51.90;27.15;;;;;;;;;;12789822;19;20086;-65
2022/12/20 18:52:41;;;;;;;;;;;;;;;;;;12842751;19;20322;-65
2022/12/20 18:57:05;;;;;;;66.03;30.20;;;;;;;;;;12844196;19;20418;-64
2022/12/20 19:01:25;;;;;;;56.17;26.00;;;;;;;;;;12844039;19;23716;-65
2022/12/20 19:05:43;;;;;;;41.90;21.58;;;;;;;;;;12842655;19;20322;-66
2022/12/20 19:10:00;;;;;;;46.95;21.50;;;;;;;;;;12842593;19;20433;-65
2022/12/20 19:14:17;;;;;;;43.90;21.75;;;;;;;;;;12840707;19;20522;-64
2022/12/20 19:18:34;;;;;;;49.40;24.13;;;;;;;;;;12842206;19;20425;-66
2022/12/20 19:22:52;;;;;;;48.25;26.15;;;;;;;;;;12841044;19;20480;-64
2022/12/20 19:27:10;;;;;;;110.63;45.55;;;;;;;;;;12766748;19;20031;-64
2022/12/20 19:31:29;;;;;;;67.15;29.70;;;;;;;;;;12840174;19;20672;-69
2022/12/20 19:35:47;;;;;;;53.15;27.83;;;;;;;;;;12841149;19;20425;-65
2022/12/20 19:40:13;;;;;;;60.92;30.38;;;;;;;;;;12840567;19;20313;-66
2022/12/20 19:44:29;;;;;;;66.90;29.70;;;;;;;;;;12839162;19;20403;-65
2022/12/20 19:48:47;;;;;;;65.88;35.33;;;;;;;;;;12840562;19;20434;-65
2022/12/20 19:53:04;;;;;;;66.30;30.77;;;;;;;;;;12839885;19;20440;-65
2022/12/20 19:57:21;;;;;;;64.60;27.53;;;;;;;;;;12766771;19;20481;-65
2022/12/20 20:01:38;;;;;;;81.38;38.67;;;;;;;;;;12838775;19;20706;-64
2022/12/20 20:05:56;;;;;;;;;;;;;;;;;;12839499;19;20006;-64
2022/12/20 20:10:13;;;;;;;82.95;36.63;;;;;;;;;;12837584;19;19911;-65
2022/12/20 20:14:31;;;;;;;76.00;36.42;;;;;;;;;;12838868;19;20429;-66
2022/12/20 20:18:48;;;;;;;133.70;49.78;;;;;;;;;;12837554;19;20423;-64
2022/12/20 20:23:05;;;;;;;86.85;37.30;;;;;;;;;;12836368;19;20435;-64
2022/12/20 20:27:22;;;;;;;108.38;51.67;;;;;;;;;;12834236;19;20441;-64
2022/12/20 20:31:40;;;;;;;74.47;31.37;;;;;;;;;;12833911;19;20425;-64
2022/12/20 20:35:59;;;;;;;86.70;39.38;;;;;;;;;;12836918;19;20445;-65
2022/12/20 20:40:16;;;;;;;88.35;45.15;;;;;;;;;;12836308;19;20041;-64
2022/12/20 20:44:33;;;;;;;71.25;32.30;;;;;;;;;;12835875;19;20006;-64
2022/12/20 20:48:50;;;;;;;59.55;29.70;;;;;;;;;;12836080;19;20472;-66
2022/12/20 20:53:07;;;;;;;61.30;29.85;;;;;;;;;;12834756;19;20303;-66
2022/12/20 20:57:24;;;;;;;64.32;28.95;;;;;;;;;;12836445;19;20007;-64
2022/12/20 21:01:41;;;;;;;59.38;26.90;;;;;;;;;;12835079;19;20010;-64
2022/12/20 21:05:59;;;;;;;55.22;24.58;;;;;;;;;;12834836;19;20438;-64
2022/12/20 21:10:36;;;;;;;54.40;23.83;;;;;;;;;;12836490;19;20011;-65
2022/12/20 21:14:53;;;;;;;48.30;23.45;;;;;;;;;;12835664;19;20039;-64
2022/12/20 21:19:30;;;;;;;43.42;23.58;;;;;;;;;;12833391;19;20460;-64
2022/12/20 21:23:48;;;;;;;48.90;23.20;;;;;;;;;;12834593;19;20322;-65
2022/12/20 21:28:05;;;;;;;45.80;21.63;;;;;;;;;;12833953;19;20295;-65
2022/12/20 21:32:22;;;;;;;43.03;21.90;;;;;;;;;;12834571;19;20378;-64
2022/12/20 21:36:39;;;;;;;47.85;22.55;;;;;;;;;;12833564;19;20010;-65
2022/12/20 21:41:12;;;;;;;44.50;20.23;;;;;;;;;;12845756;19;20575;-64
2022/12/20 21:45:32;;;;;;;45.00;22.20;;;;;;;;;;12845232;19;20429;-64
2022/12/20 21:49:50;;;;;;;46.97;21.05;;;;;;;;;;12845766;19;20366;-63
2022/12/20 21:54:08;;;;;;;50.35;23.17;;;;;;;;;;12845774;19;20011;-66
2022/12/20 21:58:28;;;;;;;48.30;24.20;;;;;;;;;;12845742;19;20318;-64
2022/12/20 22:02:45;;;;;;;52.78;26.52;;;;;;;;;;12844923;19;20322;-64
2022/12/20 22:07:04;;;;;;;55.25;23.73;;;;;;;;;;12844420;19;20318;-64
2022/12/20 22:11:21;;;;;;;63.67;24.98;;;;;;;;;;12844604;19;20371;-64
2022/12/20 22:15:38;;;;;;;49.90;22.23;;;;;;;;;;12844362;19;20452;-64
2022/12/20 22:19:56;;;;;;;54.58;24.02;;;;;;;;;;12843476;19;20338;-64
2022/12/20 22:24:13;;;;;;;56.13;25.83;;;;;;;;;;12843714;19;20010;-64
2022/12/20 22:28:31;;;;;;;46.45;21.83;;;;;;;;;;12846888;19;20346;-64
2022/12/20 22:32:48;;;;;;;37.93;19.73;;;;;;;;;;12844902;19;20433;-65
2022/12/20 22:37:05;;;;;;;39.55;18.45;;;;;;;;;;12840168;19;20007;-64
2022/12/20 22:41:27;;;;;;;40.08;20.17;;;;;;;;;;12843575;19;20335;-65
2022/12/20 22:45:57;;;;;;;34.33;17.00;;;;;;;;;;12842340;19;20428;-65
2022/12/20 22:50:14;;;;;;;31.80;17.08;;;;;;;;;;12839778;19;20492;-64
2022/12/20 22:54:32;;;;;;;38.70;18.15;;;;;;;;;;12843092;19;20444;-64
2022/12/20 22:58:49;;;;;;;33.35;17.63;;;;;;;;;;12841499;19;20007;-63
2022/12/20 23:03:06;;;;;;;35.13;17.55;;;;;;;;;;12841607;19;20309;-64
2022/12/20 23:07:23;;;;;;;36.38;17.77;;;;;;;;;;12842627;19;20452;-64
2022/12/20 23:16:16;;;;;;;33.58;16.75;;;;;;;;;;12841251;19;20426;-64
2022/12/20 23:25:15;;;;;;;39.75;20.35;;;;;;;;;;12839993;19;20502;-63
2022/12/20 23:29:33;;;;;;;37.92;19.35;;;;;;;;;;12839847;19;20626;-64
2022/12/20 23:33:50;;;;;;;49.88;23.98;;;;;;;;;;12840859;19;20329;-64
2022/12/20 23:38:07;;;;;;;54.95;24.20;;;;;;;;;;12839794;19;20377;-65
2022/12/20 23:42:24;;;;;;;53.38;21.58;;;;;;;;;;12839963;19;20290;-63
2022/12/20 23:46:41;;;;;;;38.47;20.17;;;;;;;;;;12839463;19;20717;-64
2022/12/20 23:50:58;;;;;;;43.67;19.25;;;;;;;;;;12839772;19;20445;-64
2022/12/20 23:55:15;;;;;;;47.67;18.53;;;;;;;;;;12838859;19;20015;-64
2022/12/20 23:59:32;;;;;;;38.88;18.63;;;;;;;;;;12838522;19;20002;-65
